createdAt,value
2022-08-08T00:01:10.114Z,22.97
2022-08-08T00:03:50.697Z,22.96
2022-08-08T00:06:53.636Z,22.96
2022-08-08T00:09:53.857Z,22.96
2022-08-08T00:12:30.840Z,22.96
2022-08-08T00:15:57.561Z,22.98
2022-08-08T00:18:19.824Z,22.98
2022-08-08T00:20:56.558Z,22.98
2022-08-08T00:23:42.203Z,22.96
2022-08-08T00:26:21.859Z,22.95
2022-08-08T00:29:45.655Z,22.91
2022-08-08T00:32:34.089Z,22.88
2022-08-08T00:35:18.433Z,22.84
2022-08-08T00:38:17.062Z,22.81
2022-08-08T00:41:15.300Z,22.77
2022-08-08T00:44:15.675Z,22.75
2022-08-08T00:47:14.088Z,22.71
2022-08-08T00:49:58.634Z,22.70
2022-08-08T00:52:51.953Z,22.69
2022-08-08T00:56:16.617Z,22.66
2022-08-08T00:59:12.244Z,22.60
2022-08-08T01:03:15.192Z,22.56
2022-08-08T01:05:41.839Z,22.51
2022-08-08T01:08:32.353Z,22.46
2022-08-08T01:11:31.840Z,22.44
2022-08-08T01:14:54.077Z,22.42
2022-08-08T01:17:52.226Z,22.40
2022-08-08T01:20:53.775Z,22.39
2022-08-08T01:23:55.159Z,22.39
2022-08-08T01:26:48.180Z,22.41
2022-08-08T01:29:58.857Z,22.43
2022-08-08T01:33:16.316Z,22.44
2022-08-08T01:36:31.120Z,22.45
2022-08-08T01:39:28.275Z,22.47
2022-08-08T01:42:48.360Z,22.49
2022-08-08T01:45:44.904Z,22.49
2022-08-08T01:48:43.815Z,22.51
2022-08-08T01:52:51.481Z,22.52
2022-08-08T01:55:26.039Z,22.53
2022-08-08T01:58:13.013Z,22.53
2022-08-08T02:00:43.610Z,22.51
2022-08-08T02:03:57.722Z,22.47
2022-08-08T02:06:32.406Z,22.45
2022-08-08T02:09:19.156Z,22.40
2022-08-08T02:12:14.068Z,22.37
2022-08-08T02:15:11.199Z,22.33
2022-08-08T02:18:10.289Z,22.29
2022-08-08T02:21:18.295Z,22.27
2022-08-08T02:23:58.371Z,22.22
2022-08-08T02:26:34.502Z,22.19
2022-08-08T02:29:19.021Z,22.15
2022-08-08T02:32:26.288Z,22.14
2022-08-08T02:36:02.579Z,22.13
2022-08-08T02:38:38.497Z,22.13
2022-08-08T02:42:03.961Z,22.14
2022-08-08T02:44:58.121Z,22.15
2022-08-08T02:47:51.973Z,22.15
2022-08-08T02:51:01.332Z,22.16
2022-08-08T02:54:00.631Z,22.16
2022-08-08T02:57:05.040Z,22.17
2022-08-08T03:00:27.061Z,22.19
2022-08-08T03:05:01.225Z,22.22
2022-08-08T03:06:42.288Z,22.23
2022-08-08T03:09:36.683Z,22.23
2022-08-08T03:12:36.657Z,22.24
2022-08-08T03:16:00.296Z,22.26
2022-08-08T03:19:04.029Z,22.28
2022-08-08T03:21:54.956Z,22.31
2022-08-08T03:24:20.655Z,22.31
2022-08-08T03:26:54.231Z,22.31
2022-08-08T03:29:55.348Z,22.30
2022-08-08T03:32:41.276Z,22.29
2022-08-08T03:35:10.952Z,22.29
2022-08-08T03:38:54.010Z,22.28
2022-08-08T03:40:32.010Z,22.26
2022-08-08T03:43:17.958Z,22.25
2022-08-08T03:46:05.260Z,22.24
2022-08-08T03:49:31.055Z,22.21
2022-08-08T03:51:40.381Z,22.19
2022-08-08T03:54:15.448Z,22.16
2022-08-08T03:58:30.812Z,22.14
2022-08-08T04:00:02.732Z,22.11
2022-08-08T04:02:47.679Z,22.08
2022-08-08T04:05:28.425Z,22.07
2022-08-08T04:08:03.203Z,22.06
2022-08-08T04:10:33.212Z,22.06
2022-08-08T04:13:17.829Z,22.06
2022-08-08T04:16:03.554Z,22.06
2022-08-08T04:18:44.900Z,22.08
2022-08-08T04:21:23.081Z,22.11
2022-08-08T04:24:05.857Z,22.13
2022-08-08T04:26:57.103Z,22.16
2022-08-08T04:29:27.613Z,22.19
2022-08-08T04:32:07.341Z,22.23
2022-08-08T04:34:42.992Z,22.26
2022-08-08T04:37:31.542Z,22.29
2022-08-08T04:40:07.871Z,22.33
2022-08-08T04:42:57.128Z,22.38
2022-08-08T04:45:44.313Z,22.44
2022-08-08T04:48:15.460Z,22.50
2022-08-08T04:50:45.995Z,22.55
2022-08-08T04:54:27.559Z,22.60
2022-08-08T04:56:08.957Z,22.65
2022-08-08T04:58:38.146Z,22.67
2022-08-08T05:01:11.053Z,22.69
2022-08-08T05:04:07.762Z,22.70
2022-08-08T05:06:41.386Z,22.71
2022-08-08T05:09:11.196Z,22.72
2022-08-08T05:11:41.937Z,22.75
2022-08-08T05:14:16.375Z,22.78
2022-08-08T05:17:00.558Z,22.81
2022-08-08T05:20:12.594Z,22.84
2022-08-08T05:22:29.561Z,22.86
2022-08-08T05:24:59.162Z,22.88
2022-08-08T05:27:28.014Z,22.90
2022-08-08T05:30:03.560Z,22.94
2022-08-08T05:32:40.470Z,22.99
2022-08-08T05:35:14.638Z,23.03
2022-08-08T05:37:52.913Z,23.07
2022-08-08T05:40:29.441Z,23.12
2022-08-08T05:43:17.273Z,23.17
2022-08-08T05:46:03.312Z,23.23
2022-08-08T05:48:36.046Z,23.27
2022-08-08T05:51:15.038Z,23.31
2022-08-08T05:54:26.050Z,23.35
2022-08-08T05:56:42.179Z,23.39
2022-08-08T05:59:59.510Z,23.43
2022-08-08T06:02:40.994Z,23.48
2022-08-08T06:05:35.160Z,23.53
2022-08-08T06:08:33.516Z,23.57
2022-08-08T06:11:04.666Z,23.62
2022-08-08T06:13:35.550Z,23.66
2022-08-08T06:16:06.671Z,23.69
2022-08-08T06:18:55.311Z,23.73
2022-08-08T06:21:32.510Z,23.77
2022-08-08T06:24:04.786Z,23.81
2022-08-08T06:26:50.193Z,23.85
2022-08-08T06:29:59.862Z,23.89
2022-08-08T06:32:21.987Z,23.95
2022-08-08T06:35:11.813Z,23.99
2022-08-08T06:37:56.151Z,24.05
2022-08-08T06:40:32.169Z,24.09
2022-08-08T06:43:06.676Z,24.09
2022-08-08T06:45:52.730Z,24.13
2022-08-08T06:48:21.924Z,24.17
2022-08-08T06:50:55.939Z,24.20
2022-08-08T06:53:26.053Z,24.24
2022-08-08T06:56:09.384Z,24.26
2022-08-08T06:58:39.869Z,24.27
2022-08-08T07:02:17.738Z,24.30
2022-08-08T07:04:38.966Z,24.34
2022-08-08T07:07:11.398Z,24.38
2022-08-08T07:10:01.191Z,24.43
2022-08-08T07:12:41.344Z,24.48
2022-08-08T07:15:31.701Z,24.51
2022-08-08T07:18:34.566Z,24.56
2022-08-08T07:21:04.924Z,24.63
2022-08-08T07:24:01.935Z,24.72
2022-08-08T07:26:40.137Z,24.85
2022-08-08T07:29:11.725Z,24.97
2022-08-08T07:31:59.397Z,25.10
2022-08-08T07:34:32.426Z,25.20
2022-08-08T07:37:11.567Z,25.28
2022-08-08T07:39:45.843Z,25.34
2022-08-08T07:42:33.494Z,25.42
2022-08-08T07:45:05.151Z,25.51
2022-08-08T07:47:38.940Z,25.58
2022-08-08T07:50:11.090Z,25.61
2022-08-08T07:52:44.128Z,25.66
2022-08-08T07:55:29.114Z,25.76
2022-08-08T07:58:15.857Z,25.86
2022-08-08T08:00:57.017Z,25.96
2022-08-08T08:04:19.404Z,26.08
2022-08-08T08:06:50.835Z,26.16
2022-08-08T08:09:22.589Z,26.22
2022-08-08T08:11:53.790Z,26.27
2022-08-08T08:14:44.441Z,26.34
2022-08-08T08:17:21.089Z,26.40
2022-08-08T08:19:56.548Z,26.46
2022-08-08T08:22:33.512Z,26.48
2022-08-08T08:25:07.625Z,26.49
2022-08-08T08:27:37.255Z,26.49
2022-08-08T08:30:07.367Z,26.51
2022-08-08T08:32:40.993Z,26.54
2022-08-08T08:35:21.776Z,26.59
2022-08-08T08:38:17.424Z,26.61
2022-08-08T08:40:48.816Z,26.66
2022-08-08T08:43:26.660Z,26.75
2022-08-08T08:46:03.370Z,26.88
2022-08-08T08:48:34.356Z,27.00
2022-08-08T08:51:04.865Z,27.08
2022-08-08T08:53:56.632Z,27.14
2022-08-08T08:56:28.589Z,27.21
2022-08-08T08:59:03.484Z,27.25
2022-08-08T09:01:38.562Z,27.26
2022-08-08T09:04:31.576Z,27.27
2022-08-08T09:07:13.588Z,27.27
2022-08-08T09:09:55.323Z,27.27
2022-08-08T09:12:35.213Z,27.28
2022-08-08T09:15:06.156Z,27.25
2022-08-08T09:17:41.451Z,27.23
2022-08-08T09:22:01.169Z,27.21
2022-08-08T09:23:11.493Z,27.23
2022-08-08T09:26:02.011Z,27.26
2022-08-08T09:28:40.961Z,27.33
2022-08-08T09:31:42.861Z,27.37
2022-08-08T09:34:32.122Z,27.45
2022-08-08T09:37:57.181Z,27.58
2022-08-08T09:40:10.655Z,27.70
2022-08-08T09:42:51.396Z,27.80
2022-08-08T09:45:54.693Z,27.94
2022-08-08T09:48:21.014Z,28.06
2022-08-08T09:50:55.033Z,28.14
2022-08-08T09:54:00.076Z,28.25
2022-08-08T09:56:37.240Z,28.40
2022-08-08T09:59:50.360Z,28.47
2022-08-08T10:02:12.704Z,28.56
2022-08-08T10:04:47.858Z,28.64
2022-08-08T10:07:17.479Z,28.67
2022-08-08T10:10:01.026Z,28.67
2022-08-08T10:12:54.417Z,28.71
2022-08-08T10:15:28.283Z,28.73
2022-08-08T10:18:11.795Z,28.73
2022-08-08T10:21:00.687Z,28.70
2022-08-08T10:23:41.388Z,28.68
2022-08-08T10:26:30.253Z,28.74
2022-08-08T10:29:06.565Z,28.82
2022-08-08T10:31:55.321Z,28.89
2022-08-08T10:34:27.540Z,28.95
2022-08-08T10:36:59.775Z,28.96
2022-08-08T10:39:43.475Z,28.97
2022-08-08T10:42:20.892Z,29.00
2022-08-08T10:44:50.417Z,29.04
2022-08-08T10:47:21.487Z,29.07
2022-08-08T10:50:01.184Z,29.12
2022-08-08T10:52:32.218Z,29.13
2022-08-08T10:55:13.817Z,29.16
2022-08-08T10:57:50.027Z,29.26
2022-08-08T11:00:25.749Z,29.29
2022-08-08T11:02:55.748Z,29.39
2022-08-08T11:05:24.563Z,29.54
2022-08-08T11:08:37.870Z,29.71
2022-08-08T11:10:43.405Z,29.87
2022-08-08T11:13:30.248Z,30.00
2022-08-08T11:16:07.640Z,30.08
2022-08-08T11:18:40.191Z,30.07
2022-08-08T11:21:08.896Z,29.99
2022-08-08T11:23:41.558Z,29.98
2022-08-08T11:26:18.810Z,30.00
2022-08-08T11:28:50.171Z,30.08
2022-08-08T11:31:20.785Z,30.20
2022-08-08T11:34:01.463Z,30.32
2022-08-08T11:36:33.365Z,30.46
2022-08-08T11:39:10.979Z,30.56
2022-08-08T11:41:43.208Z,30.62
2022-08-08T11:44:14.942Z,30.63
2022-08-08T11:46:44.278Z,30.58
2022-08-08T11:49:14.685Z,30.59
2022-08-08T11:51:49.572Z,30.66
2022-08-08T11:54:34.415Z,30.80
2022-08-08T11:57:23.959Z,30.93
2022-08-08T12:00:01.419Z,31.05
2022-08-08T12:02:57.492Z,31.17
2022-08-08T12:05:33.552Z,31.29
2022-08-08T12:08:02.563Z,31.38
2022-08-08T12:10:33.857Z,31.46
2022-08-08T12:13:05.288Z,31.55
2022-08-08T12:15:41.909Z,31.65
2022-08-08T12:18:26.154Z,31.77
2022-08-08T12:20:58.676Z,31.87
2022-08-08T12:23:40.365Z,31.99
2022-08-08T12:26:16.773Z,32.24
2022-08-08T12:28:57.399Z,32.49
2022-08-08T12:31:39.082Z,32.73
2022-08-08T12:34:41.225Z,32.92
2022-08-08T12:37:40.000Z,33.07
2022-08-08T12:40:54.730Z,33.18
2022-08-08T12:43:32.075Z,33.33
2022-08-08T12:46:25.201Z,33.46
2022-08-08T12:49:22.054Z,33.54
2022-08-08T12:51:53.878Z,33.62
2022-08-08T12:54:36.095Z,33.65
2022-08-08T12:57:23.325Z,33.69
2022-08-08T13:00:05.776Z,33.73
2022-08-08T13:02:51.105Z,33.74
2022-08-08T13:05:27.033Z,33.74
2022-08-08T13:08:18.247Z,33.69
2022-08-08T13:10:58.466Z,33.62
2022-08-08T13:13:37.340Z,33.51
2022-08-08T13:16:25.488Z,33.37
2022-08-08T13:19:06.561Z,33.21
2022-08-08T13:21:55.391Z,33.03
2022-08-08T13:24:48.063Z,32.83
2022-08-08T13:27:19.363Z,32.63
2022-08-08T13:29:56.165Z,32.46
2022-08-08T13:32:30.533Z,32.29
2022-08-08T13:35:00.412Z,32.14
2022-08-08T13:38:05.862Z,31.99
2022-08-08T13:40:27.262Z,31.83
2022-08-08T13:42:57.779Z,31.64
2022-08-08T13:45:27.140Z,31.37
2022-08-08T13:47:59.883Z,30.83
2022-08-08T13:50:39.780Z,30.50
2022-08-08T13:53:31.572Z,30.10
2022-08-08T13:56:11.614Z,29.44
2022-08-08T13:58:57.209Z,28.93
2022-08-08T14:01:41.875Z,28.71
2022-08-08T14:04:23.454Z,28.20
2022-08-08T14:07:04.070Z,27.66
2022-08-08T14:10:04.284Z,27.61
2022-08-08T14:12:32.499Z,27.44
2022-08-08T14:15:03.109Z,27.16
2022-08-08T14:17:57.944Z,27.06
2022-08-08T14:20:56.609Z,26.91
2022-08-08T14:23:10.185Z,26.76
2022-08-08T14:25:54.136Z,26.70
2022-08-08T14:28:29.148Z,26.60
2022-08-08T14:31:09.424Z,26.43
2022-08-08T14:33:39.283Z,26.24
2022-08-08T14:36:13.946Z,26.24
2022-08-08T14:38:52.661Z,26.22
2022-08-08T14:41:45.151Z,26.22
2022-08-08T14:44:21.041Z,26.25
2022-08-08T14:47:00.991Z,26.31
2022-08-08T14:49:37.724Z,26.38
2022-08-08T14:52:23.953Z,26.45
2022-08-08T14:54:51.901Z,26.49
2022-08-08T14:58:02.330Z,26.50
2022-08-08T15:00:10.305Z,26.48
2022-08-08T15:02:58.620Z,26.46
2022-08-08T15:05:42.689Z,26.44
2022-08-08T15:08:22.207Z,26.42
2022-08-08T15:11:01.845Z,26.39
2022-08-08T15:13:40.094Z,26.37
2022-08-08T15:16:20.769Z,26.33
2022-08-08T15:18:51.602Z,26.29
2022-08-08T15:21:20.797Z,26.19
2022-08-08T15:23:51.418Z,26.06
2022-08-08T15:26:20.466Z,25.88
2022-08-08T15:28:50.862Z,25.72
2022-08-08T15:31:56.251Z,25.59
2022-08-08T15:34:29.414Z,25.41
2022-08-08T15:37:02.339Z,25.28
2022-08-08T15:39:37.515Z,25.19
2022-08-08T15:42:13.173Z,25.07
2022-08-08T15:44:46.046Z,24.96
2022-08-08T15:47:15.972Z,24.91
2022-08-08T15:49:48.948Z,24.85
2022-08-08T15:52:20.526Z,24.76
2022-08-08T15:54:52.442Z,24.68
2022-08-08T15:57:21.693Z,24.62
2022-08-08T16:00:06.254Z,24.56
2022-08-08T16:02:44.049Z,24.49
2022-08-08T16:05:14.328Z,24.42
2022-08-08T16:07:52.413Z,24.34
2022-08-08T16:13:10.007Z,24.26
2022-08-08T16:13:43.292Z,24.16
2022-08-08T16:16:09.033Z,24.06
2022-08-08T16:18:42.524Z,24.02
2022-08-08T16:21:20.813Z,23.99
2022-08-08T16:23:56.770Z,23.96
2022-08-08T16:26:34.479Z,23.84
2022-08-08T16:29:09.089Z,23.68
2022-08-08T16:31:42.070Z,23.62
2022-08-08T16:34:19.697Z,23.62
2022-08-08T16:36:50.259Z,23.62
2022-08-08T16:39:59.898Z,23.60
2022-08-08T16:42:18.132Z,23.59
2022-08-08T16:44:54.215Z,23.60
2022-08-08T16:47:40.573Z,23.61
2022-08-08T16:50:15.544Z,23.62
2022-08-08T16:55:19.498Z,23.60
2022-08-08T16:55:55.011Z,23.57
2022-08-08T16:58:26.505Z,23.57
2022-08-08T17:00:58.103Z,23.58
2022-08-08T17:03:58.011Z,23.59
2022-08-08T17:06:35.251Z,23.60
2022-08-08T17:09:05.646Z,23.60
2022-08-08T17:11:39.302Z,23.58
2022-08-08T17:14:18.853Z,23.57
2022-08-08T17:16:57.327Z,23.56
2022-08-08T17:19:29.118Z,23.53
2022-08-08T17:22:01.382Z,23.52
2022-08-08T17:24:31.202Z,23.51
2022-08-08T17:27:01.959Z,23.51
2022-08-08T17:29:33.981Z,23.50
2022-08-08T17:32:07.859Z,23.50
2022-08-08T17:35:04.333Z,23.47
2022-08-08T17:37:27.604Z,23.40
2022-08-08T17:40:11.065Z,23.37
2022-08-08T17:42:47.150Z,23.33
2022-08-08T17:45:22.841Z,23.28
2022-08-08T17:47:53.802Z,23.23
2022-08-08T17:50:23.880Z,23.17
2022-08-08T17:52:53.842Z,23.12
2022-08-08T17:56:06.788Z,23.09
2022-08-08T17:58:15.457Z,23.06
2022-08-08T18:00:47.460Z,23.03
2022-08-08T18:03:22.986Z,22.99
2022-08-08T18:05:51.030Z,22.92
2022-08-08T18:08:37.613Z,22.84
2022-08-08T18:11:14.567Z,22.73
2022-08-08T18:13:46.179Z,22.57
2022-08-08T18:16:20.396Z,22.43
2022-08-08T18:18:56.579Z,22.28
2022-08-08T18:21:59.735Z,22.17
2022-08-08T18:24:22.060Z,22.11
2022-08-08T18:26:55.499Z,22.06
2022-08-08T18:29:33.802Z,22.03
2022-08-08T18:32:06.587Z,21.96
2022-08-08T18:34:36.884Z,21.92
2022-08-08T18:37:08.357Z,21.93
2022-08-08T18:39:42.017Z,21.95
2022-08-08T18:42:16.004Z,21.98
2022-08-08T18:44:55.916Z,22.01
2022-08-08T18:47:27.295Z,22.05
2022-08-08T18:50:00.379Z,22.11
2022-08-08T18:52:34.723Z,22.15
2022-08-08T18:55:10.137Z,22.20
2022-08-08T18:57:43.354Z,22.24
2022-08-08T19:00:20.115Z,22.28
2022-08-08T19:02:56.188Z,22.31
2022-08-08T19:05:31.805Z,22.34
2022-08-08T19:08:25.862Z,22.37
2022-08-08T19:11:01.302Z,22.38
2022-08-08T19:13:52.656Z,22.39
2022-08-08T19:16:23.455Z,22.40
2022-08-08T19:19:02.231Z,22.41
2022-08-08T19:21:32.955Z,22.41
2022-08-08T19:24:05.443Z,22.44
2022-08-08T19:26:37.779Z,22.47
2022-08-08T19:29:07.274Z,22.47
2022-08-08T19:31:36.036Z,22.47
2022-08-08T19:34:35.715Z,22.46
2022-08-08T19:36:58.412Z,22.44
2022-08-08T19:39:35.253Z,22.42
2022-08-08T19:42:06.772Z,22.39
2022-08-08T19:44:45.365Z,22.36
2022-08-08T19:47:15.651Z,22.32
2022-08-08T19:49:59.602Z,22.29
2022-08-08T19:52:34.629Z,22.26
2022-08-08T19:55:11.538Z,22.23
2022-08-08T19:57:42.504Z,22.21
2022-08-08T20:00:29.172Z,22.22
2022-08-08T20:03:15.291Z,22.22
2022-08-08T20:06:15.014Z,22.21
2022-08-08T20:08:48.337Z,22.21
2022-08-08T20:11:16.962Z,22.21
2022-08-08T20:14:31.395Z,22.20
2022-08-08T20:16:38.931Z,22.19
2022-08-08T20:19:09.865Z,22.19
2022-08-08T20:21:38.511Z,22.20
2022-08-08T20:24:07.876Z,22.18
2022-08-08T20:26:38.444Z,22.17
2022-08-08T20:29:11.075Z,22.15
2022-08-08T20:32:06.985Z,22.16
2022-08-08T20:34:31.895Z,22.19
2022-08-08T20:37:02.536Z,22.21
2022-08-08T20:39:39.743Z,22.22
2022-08-08T20:42:29.143Z,22.23
2022-08-08T20:44:59.074Z,22.24
2022-08-08T20:47:36.263Z,22.24
2022-08-08T20:50:09.923Z,22.24
2022-08-08T20:52:39.646Z,22.24
2022-08-08T20:55:22.901Z,22.24
2022-08-08T20:57:54.348Z,22.23
2022-08-08T21:00:26.311Z,22.21
2022-08-08T21:02:54.418Z,22.18
2022-08-08T21:05:23.149Z,22.15
2022-08-08T21:08:36.652Z,22.13
2022-08-08T21:10:40.923Z,22.11
2022-08-08T21:13:08.985Z,22.09
2022-08-08T21:16:05.651Z,22.07
2022-08-08T21:18:27.961Z,22.04
2022-08-08T21:20:56.462Z,22.00
2022-08-08T21:23:59.189Z,21.97
2022-08-08T21:26:13.104Z,21.94
2022-08-08T21:28:49.755Z,21.92
2022-08-08T21:31:22.993Z,21.92
2022-08-08T21:33:53.275Z,21.92
2022-08-08T21:36:29.292Z,21.91
2022-08-08T21:38:58.632Z,21.90
2022-08-08T21:41:28.777Z,21.90
2022-08-08T21:44:12.117Z,21.89
2022-08-08T21:48:04.262Z,21.90
2022-08-08T21:49:31.192Z,21.90
2022-08-08T21:54:22.620Z,21.90
2022-08-08T21:55:01.685Z,21.88
2022-08-08T21:57:42.473Z,21.87
2022-08-08T22:00:14.226Z,21.87
2022-08-08T22:02:44.744Z,21.87
2022-08-08T22:05:14.744Z,21.87
2022-08-08T22:07:48.135Z,21.87
2022-08-08T22:10:28.660Z,21.86
2022-08-08T22:13:17.510Z,21.85
2022-08-08T22:15:58.624Z,21.84
2022-08-08T22:18:35.393Z,21.85
2022-08-08T22:21:11.100Z,21.85
2022-08-08T22:23:50.323Z,21.86
2022-08-08T22:26:29.344Z,21.86
2022-08-08T22:29:14.107Z,21.85
2022-08-08T22:31:58.800Z,21.85
2022-08-08T22:34:39.303Z,21.87
2022-08-08T22:37:14.865Z,21.89
2022-08-08T22:40:01.182Z,21.91
2022-08-08T22:42:32.139Z,21.90
2022-08-08T22:45:12.248Z,21.90
2022-08-08T22:47:47.277Z,21.90
2022-08-08T22:50:26.490Z,21.88
2022-08-08T22:54:31.900Z,21.84
2022-08-08T22:55:59.556Z,21.80
2022-08-08T22:58:33.230Z,21.75
2022-08-08T23:01:33.698Z,21.70
2022-08-08T23:03:55.084Z,21.65
2022-08-08T23:06:25.784Z,21.60
2022-08-08T23:09:00.184Z,21.56
2022-08-08T23:12:28.502Z,21.51
2022-08-08T23:14:20.983Z,21.47
2022-08-08T23:16:54.852Z,21.45
2022-08-08T23:19:31.101Z,21.44
2022-08-08T23:22:06.667Z,21.43
2022-08-08T23:24:41.593Z,21.43
2022-08-08T23:27:17.157Z,21.41
2022-08-08T23:30:00.039Z,21.41
2022-08-08T23:32:28.135Z,21.42
2022-08-08T23:34:58.806Z,21.42
2022-08-08T23:38:00.790Z,21.40
2022-08-08T23:40:22.128Z,21.40
2022-08-08T23:42:51.312Z,21.39
2022-08-08T23:49:03.739Z,21.40
2022-08-08T23:49:06.770Z,21.41
2022-08-08T23:50:57.481Z,21.38
2022-08-08T23:53:55.945Z,21.33
2022-08-08T23:56:14.016Z,21.29
2022-08-08T23:59:00.531Z,21.25
